sensor_id;sensor_type;location;lat;lon;timestamp;temperature;humidity
4566;DHT22;2295;51.050;14.608;2024-02-26T00:00:27;1.20;99.90
4566;DHT22;2295;51.050;14.608;2024-02-26T00:02:56;1.10;99.90
4566;DHT22;2295;51.050;14.608;2024-02-26T00:05:37;1.10;99.90
4566;DHT22;2295;51.050;14.608;2024-02-26T00:08:06;1.10;99.90
4566;DHT22;2295;51.050;14.608;2024-02-26T00:10:35;1.10;99.90
4566;DHT22;2295;51.050;14.608;2024-02-26T00:13:04;1.10;99.90
4566;DHT22;2295;51.050;14.608;2024-02-26T00:15:42;1.10;99.90
4566;DHT22;2295;51.050;14.608;2024-02-26T00:18:19;1.10;99.90
4566;DHT22;2295;51.050;14.608;2024-02-26T00:20:48;1.10;99.90
4566;DHT22;2295;51.050;14.608;2024-02-26T00:23:31;1.00;99.90
4566;DHT22;2295;51.050;14.608;2024-02-26T00:26:24;1.00;99.90
4566;DHT22;2295;51.050;14.608;2024-02-26T00:28:53;1.10;99.90
4566;DHT22;2295;51.050;14.608;2024-02-26T00:31:23;1.10;99.90
4566;DHT22;2295;51.050;14.608;2024-02-26T00:33:51;1.00;99.90
4566;DHT22;2295;51.050;14.608;2024-02-26T00:36:41;0.90;99.90
4566;DHT22;2295;51.050;14.608;2024-02-26T00:39:29;0.80;99.90
4566;DHT22;2295;51.050;14.608;2024-02-26T00:41:57;0.90;99.90
4566;DHT22;2295;51.050;14.608;2024-02-26T00:44:37;0.80;99.90
4566;DHT22;2295;51.050;14.608;2024-02-26T00:47:31;0.60;99.90
4566;DHT22;2295;51.050;14.608;2024-02-26T00:50:00;0.40;99.90
4566;DHT22;2295;51.050;14.608;2024-02-26T00:52:35;0.20;99.90
4566;DHT22;2295;51.050;14.608;2024-02-26T00:55:04;0.10;99.90
4566;DHT22;2295;51.050;14.608;2024-02-26T00:57:39;0.00;99.90
4566;DHT22;2295;51.050;14.608;2024-02-26T01:00:25;0.00;99.90
4566;DHT22;2295;51.050;14.608;2024-02-26T01:03:28;-0.10;99.90
4566;DHT22;2295;51.050;14.608;2024-02-26T01:05:57;-0.10;99.90
4566;DHT22;2295;51.050;14.608;2024-02-26T01:08:26;-0.10;99.90
4566;DHT22;2295;51.050;14.608;2024-02-26T01:10:54;-0.20;99.90
4566;DHT22;2295;51.050;14.608;2024-02-26T01:13:25;-0.20;99.90
4566;DHT22;2295;51.050;14.608;2024-02-26T01:15:54;-0.10;99.90
4566;DHT22;2295;51.050;14.608;2024-02-26T01:18:26;-0.10;99.90
4566;DHT22;2295;51.050;14.608;2024-02-26T01:20:55;-0.10;99.90
4566;DHT22;2295;51.050;14.608;2024-02-26T01:23:24;-0.20;99.90
4566;DHT22;2295;51.050;14.608;2024-02-26T01:25:52;-0.30;99.90
4566;DHT22;2295;51.050;14.608;2024-02-26T01:28:20;-0.50;99.90
4566;DHT22;2295;51.050;14.608;2024-02-26T01:30:49;-0.50;99.90
4566;DHT22;2295;51.050;14.608;2024-02-26T01:33:17;-0.60;99.90
4566;DHT22;2295;51.050;14.608;2024-02-26T01:35:47;-0.60;99.90
4566;DHT22;2295;51.050;14.608;2024-02-26T01:38:20;-0.60;99.90
4566;DHT22;2295;51.050;14.608;2024-02-26T01:40:49;-0.50;99.90
4566;DHT22;2295;51.050;14.608;2024-02-26T01:43:17;-0.40;99.90
4566;DHT22;2295;51.050;14.608;2024-02-26T01:45:46;-0.40;99.90
4566;DHT22;2295;51.050;14.608;2024-02-26T01:48:14;-0.50;99.90
4566;DHT22;2295;51.050;14.608;2024-02-26T01:50:43;-0.60;99.90
4566;DHT22;2295;51.050;14.608;2024-02-26T01:53:26;-0.70;99.90
4566;DHT22;2295;51.050;14.608;2024-02-26T01:55:58;-0.70;99.90
4566;DHT22;2295;51.050;14.608;2024-02-26T01:58:27;-0.80;99.90
4566;DHT22;2295;51.050;14.608;2024-02-26T02:00:57;-0.90;99.90
4566;DHT22;2295;51.050;14.608;2024-02-26T02:03:26;-1.00;99.90
4566;DHT22;2295;51.050;14.608;2024-02-26T02:05:55;-0.90;99.90
4566;DHT22;2295;51.050;14.608;2024-02-26T02:08:26;-1.00;99.90
4566;DHT22;2295;51.050;14.608;2024-02-26T02:10:55;-1.00;99.90
4566;DHT22;2295;51.050;14.608;2024-02-26T02:13:24;-1.10;99.90
4566;DHT22;2295;51.050;14.608;2024-02-26T02:15:53;-1.10;99.90
4566;DHT22;2295;51.050;14.608;2024-02-26T02:18:21;-1.00;99.90
4566;DHT22;2295;51.050;14.608;2024-02-26T02:20:53;-1.00;99.90
4566;DHT22;2295;51.050;14.608;2024-02-26T02:23:35;-1.10;99.90
4566;DHT22;2295;51.050;14.608;2024-02-26T02:26:04;-1.10;99.90
4566;DHT22;2295;51.050;14.608;2024-02-26T02:28:32;-1.10;99.90
4566;DHT22;2295;51.050;14.608;2024-02-26T02:31:03;-1.20;99.90
4566;DHT22;2295;51.050;14.608;2024-02-26T02:33:33;-1.20;99.90
4566;DHT22;2295;51.050;14.608;2024-02-26T02:36:06;-1.30;99.90
4566;DHT22;2295;51.050;14.608;2024-02-26T02:38:37;-1.40;99.90
4566;DHT22;2295;51.050;14.608;2024-02-26T02:41:08;-1.40;99.90
4566;DHT22;2295;51.050;14.608;2024-02-26T02:43:37;-1.50;99.90
4566;DHT22;2295;51.050;14.608;2024-02-26T02:46:05;-1.40;99.90
4566;DHT22;2295;51.050;14.608;2024-02-26T02:48:34;-1.50;99.90
4566;DHT22;2295;51.050;14.608;2024-02-26T02:51:04;-1.50;99.90
4566;DHT22;2295;51.050;14.608;2024-02-26T02:53:33;-1.60;99.90
4566;DHT22;2295;51.050;14.608;2024-02-26T02:56:01;-1.50;99.90
4566;DHT22;2295;51.050;14.608;2024-02-26T02:58:30;-1.60;99.90
4566;DHT22;2295;51.050;14.608;2024-02-26T03:00:58;-1.60;99.90
4566;DHT22;2295;51.050;14.608;2024-02-26T03:03:28;-1.60;99.90
4566;DHT22;2295;51.050;14.608;2024-02-26T03:05:56;-1.60;99.90
4566;DHT22;2295;51.050;14.608;2024-02-26T03:08:26;-1.70;99.90
4566;DHT22;2295;51.050;14.608;2024-02-26T03:10:55;-1.70;99.90
4566;DHT22;2295;51.050;14.608;2024-02-26T03:13:30;-1.80;99.90
4566;DHT22;2295;51.050;14.608;2024-02-26T03:16:04;-1.70;99.90
4566;DHT22;2295;51.050;14.608;2024-02-26T03:18:34;-1.70;99.90
4566;DHT22;2295;51.050;14.608;2024-02-26T03:21:08;-1.70;99.90
4566;DHT22;2295;51.050;14.608;2024-02-26T03:23:38;-1.70;99.90
4566;DHT22;2295;51.050;14.608;2024-02-26T03:26:07;-1.70;99.90
4566;DHT22;2295;51.050;14.608;2024-02-26T03:28:36;-1.70;99.90
4566;DHT22;2295;51.050;14.608;2024-02-26T03:31:04;-1.80;99.90
4566;DHT22;2295;51.050;14.608;2024-02-26T03:33:34;-1.90;99.90
4566;DHT22;2295;51.050;14.608;2024-02-26T03:36:03;-1.90;99.90
4566;DHT22;2295;51.050;14.608;2024-02-26T03:38:32;-1.80;99.90
4566;DHT22;2295;51.050;14.608;2024-02-26T03:41:02;-1.80;99.90
4566;DHT22;2295;51.050;14.608;2024-02-26T03:43:34;-1.90;99.90
4566;DHT22;2295;51.050;14.608;2024-02-26T03:46:03;-1.80;99.90
4566;DHT22;2295;51.050;14.608;2024-02-26T03:48:31;-1.70;99.90
4566;DHT22;2295;51.050;14.608;2024-02-26T03:51:04;-1.70;99.90
4566;DHT22;2295;51.050;14.608;2024-02-26T03:53:45;-1.70;99.90
4566;DHT22;2295;51.050;14.608;2024-02-26T03:56:19;-1.70;99.90
4566;DHT22;2295;51.050;14.608;2024-02-26T03:58:52;-1.80;99.90
4566;DHT22;2295;51.050;14.608;2024-02-26T04:01:30;-1.80;99.90
4566;DHT22;2295;51.050;14.608;2024-02-26T04:04:01;-1.70;99.90
4566;DHT22;2295;51.050;14.608;2024-02-26T04:06:35;-1.70;99.90
4566;DHT22;2295;51.050;14.608;2024-02-26T04:09:07;-1.60;99.90
4566;DHT22;2295;51.050;14.608;2024-02-26T04:11:39;-1.50;99.90
4566;DHT22;2295;51.050;14.608;2024-02-26T04:14:09;-1.50;99.90
4566;DHT22;2295;51.050;14.608;2024-02-26T04:16:40;-1.50;99.90
4566;DHT22;2295;51.050;14.608;2024-02-26T04:19:09;-1.50;99.90
4566;DHT22;2295;51.050;14.608;2024-02-26T04:21:37;-1.60;99.90
4566;DHT22;2295;51.050;14.608;2024-02-26T04:24:08;-1.70;99.90
4566;DHT22;2295;51.050;14.608;2024-02-26T04:26:38;-1.70;99.90
4566;DHT22;2295;51.050;14.608;2024-02-26T04:29:06;-1.70;99.90
4566;DHT22;2295;51.050;14.608;2024-02-26T04:31:36;-1.80;99.90
4566;DHT22;2295;51.050;14.608;2024-02-26T04:34:05;-1.80;99.90
4566;DHT22;2295;51.050;14.608;2024-02-26T04:36:34;-1.90;99.90
4566;DHT22;2295;51.050;14.608;2024-02-26T04:39:02;-1.90;99.90
4566;DHT22;2295;51.050;14.608;2024-02-26T04:41:34;-1.90;99.90
4566;DHT22;2295;51.050;14.608;2024-02-26T04:44:04;-1.90;99.90
4566;DHT22;2295;51.050;14.608;2024-02-26T04:46:33;-1.80;99.90
4566;DHT22;2295;51.050;14.608;2024-02-26T04:49:04;-1.80;99.90
4566;DHT22;2295;51.050;14.608;2024-02-26T04:51:33;-1.80;99.90
4566;DHT22;2295;51.050;14.608;2024-02-26T04:54:05;-1.80;99.90
4566;DHT22;2295;51.050;14.608;2024-02-26T04:56:36;-1.90;99.90
4566;DHT22;2295;51.050;14.608;2024-02-26T04:59:06;-1.90;99.90
4566;DHT22;2295;51.050;14.608;2024-02-26T05:01:37;-1.90;99.90
4566;DHT22;2295;51.050;14.608;2024-02-26T05:04:24;-1.90;99.90
4566;DHT22;2295;51.050;14.608;2024-02-26T05:06:56;-1.90;99.90
4566;DHT22;2295;51.050;14.608;2024-02-26T05:09:24;-1.90;99.90
4566;DHT22;2295;51.050;14.608;2024-02-26T05:11:55;-2.00;99.90
4566;DHT22;2295;51.050;14.608;2024-02-26T05:14:26;-2.00;99.90
4566;DHT22;2295;51.050;14.608;2024-02-26T05:16:54;-2.10;99.90
4566;DHT22;2295;51.050;14.608;2024-02-26T05:19:23;-2.10;99.90
4566;DHT22;2295;51.050;14.608;2024-02-26T05:21:52;-2.10;99.90
4566;DHT22;2295;51.050;14.608;2024-02-26T05:24:32;-2.00;99.90
4566;DHT22;2295;51.050;14.608;2024-02-26T05:27:00;-2.10;99.90
4566;DHT22;2295;51.050;14.608;2024-02-26T05:29:30;-2.20;99.90
4566;DHT22;2295;51.050;14.608;2024-02-26T05:31:59;-2.20;99.90
4566;DHT22;2295;51.050;14.608;2024-02-26T05:34:37;-2.30;99.90
4566;DHT22;2295;51.050;14.608;2024-02-26T05:37:08;-2.30;99.90
4566;DHT22;2295;51.050;14.608;2024-02-26T05:39:37;-2.20;99.90
4566;DHT22;2295;51.050;14.608;2024-02-26T05:42:06;-2.20;99.90
4566;DHT22;2295;51.050;14.608;2024-02-26T05:44:37;-2.20;99.90
4566;DHT22;2295;51.050;14.608;2024-02-26T05:47:06;-2.20;99.90
4566;DHT22;2295;51.050;14.608;2024-02-26T05:49:34;-2.10;99.90
4566;DHT22;2295;51.050;14.608;2024-02-26T05:52:03;-2.10;99.90
4566;DHT22;2295;51.050;14.608;2024-02-26T05:54:46;-2.10;99.90
4566;DHT22;2295;51.050;14.608;2024-02-26T05:57:15;-2.10;99.90
4566;DHT22;2295;51.050;14.608;2024-02-26T05:59:47;-2.10;99.90
4566;DHT22;2295;51.050;14.608;2024-02-26T06:02:16;-2.20;99.90
4566;DHT22;2295;51.050;14.608;2024-02-26T06:04:44;-2.20;99.90
4566;DHT22;2295;51.050;14.608;2024-02-26T06:07:17;-2.20;99.90
4566;DHT22;2295;51.050;14.608;2024-02-26T06:09:45;-2.20;99.90
4566;DHT22;2295;51.050;14.608;2024-02-26T06:12:13;-2.10;99.90
4566;DHT22;2295;51.050;14.608;2024-02-26T06:14:43;-2.10;99.90
4566;DHT22;2295;51.050;14.608;2024-02-26T06:17:15;-1.90;99.90
4566;DHT22;2295;51.050;14.608;2024-02-26T06:19:43;-1.90;99.90
4566;DHT22;2295;51.050;14.608;2024-02-26T06:22:12;-1.80;99.90
4566;DHT22;2295;51.050;14.608;2024-02-26T06:24:40;-1.70;99.90
4566;DHT22;2295;51.050;14.608;2024-02-26T06:27:09;-1.70;99.90
4566;DHT22;2295;51.050;14.608;2024-02-26T06:29:40;-1.60;99.90
4566;DHT22;2295;51.050;14.608;2024-02-26T06:32:09;-1.40;99.90
4566;DHT22;2295;51.050;14.608;2024-02-26T06:34:47;-1.30;99.90
4566;DHT22;2295;51.050;14.608;2024-02-26T06:37:16;-1.00;99.90
4566;DHT22;2295;51.050;14.608;2024-02-26T06:39:45;-0.60;99.90
4566;DHT22;2295;51.050;14.608;2024-02-26T06:42:13;-0.20;99.90
4566;DHT22;2295;51.050;14.608;2024-02-26T06:44:41;0.20;99.90
4566;DHT22;2295;51.050;14.608;2024-02-26T06:47:17;0.50;99.90
4566;DHT22;2295;51.050;14.608;2024-02-26T06:49:48;0.70;99.90
4566;DHT22;2295;51.050;14.608;2024-02-26T06:52:16;1.10;99.90
4566;DHT22;2295;51.050;14.608;2024-02-26T06:54:45;1.30;99.90
4566;DHT22;2295;51.050;14.608;2024-02-26T06:57:15;1.40;99.90
4566;DHT22;2295;51.050;14.608;2024-02-26T06:59:46;1.40;99.90
4566;DHT22;2295;51.050;14.608;2024-02-26T07:02:32;1.40;99.90
4566;DHT22;2295;51.050;14.608;2024-02-26T07:05:13;1.40;99.90
4566;DHT22;2295;51.050;14.608;2024-02-26T07:07:41;1.40;99.90
4566;DHT22;2295;51.050;14.608;2024-02-26T07:10:10;1.50;99.90
4566;DHT22;2295;51.050;14.608;2024-02-26T07:12:39;1.70;99.90
4566;DHT22;2295;51.050;14.608;2024-02-26T07:15:09;1.80;99.90
4566;DHT22;2295;51.050;14.608;2024-02-26T07:17:40;2.00;99.90
4566;DHT22;2295;51.050;14.608;2024-02-26T07:20:15;2.10;99.90
4566;DHT22;2295;51.050;14.608;2024-02-26T07:22:45;2.20;99.90
4566;DHT22;2295;51.050;14.608;2024-02-26T07:25:13;2.30;99.90
4566;DHT22;2295;51.050;14.608;2024-02-26T07:27:43;2.70;99.90
4566;DHT22;2295;51.050;14.608;2024-02-26T07:30:12;4.00;99.90
4566;DHT22;2295;51.050;14.608;2024-02-26T07:32:40;5.20;99.90
4566;DHT22;2295;51.050;14.608;2024-02-26T07:35:09;6.20;99.90
4566;DHT22;2295;51.050;14.608;2024-02-26T07:37:38;7.00;99.90
4566;DHT22;2295;51.050;14.608;2024-02-26T07:40:08;7.90;99.90
4566;DHT22;2295;51.050;14.608;2024-02-26T07:42:36;8.30;99.90
4566;DHT22;2295;51.050;14.608;2024-02-26T07:45:06;8.90;99.90
4566;DHT22;2295;51.050;14.608;2024-02-26T10:12:15;15.10;99.90
4566;DHT22;2295;51.050;14.608;2024-02-26T10:19:41;15.10;97.40
4566;DHT22;2295;51.050;14.608;2024-02-26T10:22:10;15.10;98.90
4566;DHT22;2295;51.050;14.608;2024-02-26T10:24:39;14.10;99.80
4566;DHT22;2295;51.050;14.608;2024-02-26T10:27:08;14.00;99.90
4566;DHT22;2295;51.050;14.608;2024-02-26T10:29:37;14.50;99.90
4566;DHT22;2295;51.050;14.608;2024-02-26T10:32:06;14.00;99.90
4566;DHT22;2295;51.050;14.608;2024-02-26T10:34:35;14.20;99.90
4566;DHT22;2295;51.050;14.608;2024-02-26T10:37:05;13.80;99.90
4566;DHT22;2295;51.050;14.608;2024-02-26T10:39:36;13.60;99.90
4566;DHT22;2295;51.050;14.608;2024-02-26T10:42:12;13.40;99.90
4566;DHT22;2295;51.050;14.608;2024-02-26T10:44:42;13.80;99.90
4566;DHT22;2295;51.050;14.608;2024-02-26T10:47:12;14.00;99.90
4566;DHT22;2295;51.050;14.608;2024-02-26T10:49:46;13.90;99.90
4566;DHT22;2295;51.050;14.608;2024-02-26T10:52:15;13.10;99.90
4566;DHT22;2295;51.050;14.608;2024-02-26T10:54:47;13.00;99.90
4566;DHT22;2295;51.050;14.608;2024-02-26T10:57:19;12.80;99.90
4566;DHT22;2295;51.050;14.608;2024-02-26T10:59:49;12.70;99.90
4566;DHT22;2295;51.050;14.608;2024-02-26T11:02:20;12.70;99.90
4566;DHT22;2295;51.050;14.608;2024-02-26T11:04:49;12.60;99.90
4566;DHT22;2295;51.050;14.608;2024-02-26T11:07:18;12.80;99.90
4566;DHT22;2295;51.050;14.608;2024-02-26T11:09:48;12.90;99.90
4566;DHT22;2295;51.050;14.608;2024-02-26T11:12:21;13.10;99.90
4566;DHT22;2295;51.050;14.608;2024-02-26T11:14:50;13.30;99.90
4566;DHT22;2295;51.050;14.608;2024-02-26T11:17:22;13.10;99.90
4566;DHT22;2295;51.050;14.608;2024-02-26T11:19:55;13.00;99.90
4566;DHT22;2295;51.050;14.608;2024-02-26T11:22:25;13.00;99.90
4566;DHT22;2295;51.050;14.608;2024-02-26T11:24:54;12.80;99.90
4566;DHT22;2295;51.050;14.608;2024-02-26T11:27:27;13.30;99.90
4566;DHT22;2295;51.050;14.608;2024-02-26T11:29:59;13.40;99.90
4566;DHT22;2295;51.050;14.608;2024-02-26T11:32:30;13.00;99.90
4566;DHT22;2295;51.050;14.608;2024-02-26T11:34:59;12.80;99.90
4566;DHT22;2295;51.050;14.608;2024-02-26T11:37:27;12.50;99.90
4566;DHT22;2295;51.050;14.608;2024-02-26T11:39:59;12.60;99.90
4566;DHT22;2295;51.050;14.608;2024-02-26T11:42:29;12.90;99.90
4566;DHT22;2295;51.050;14.608;2024-02-26T11:44:58;12.90;99.90
4566;DHT22;2295;51.050;14.608;2024-02-26T11:47:28;13.00;99.90
4566;DHT22;2295;51.050;14.608;2024-02-26T11:49:56;13.10;99.90
4566;DHT22;2295;51.050;14.608;2024-02-26T11:52:24;13.10;99.90
4566;DHT22;2295;51.050;14.608;2024-02-26T11:54:53;13.00;99.90
4566;DHT22;2295;51.050;14.608;2024-02-26T11:57:29;12.90;99.90
4566;DHT22;2295;51.050;14.608;2024-02-26T12:00:11;12.90;99.90
4566;DHT22;2295;51.050;14.608;2024-02-26T12:02:41;12.80;99.90
4566;DHT22;2295;51.050;14.608;2024-02-26T12:05:14;12.60;99.90
4566;DHT22;2295;51.050;14.608;2024-02-26T12:07:47;12.40;99.90
4566;DHT22;2295;51.050;14.608;2024-02-26T12:10:26;12.40;99.90
4566;DHT22;2295;51.050;14.608;2024-02-26T12:13:00;12.40;99.90
4566;DHT22;2295;51.050;14.608;2024-02-26T12:15:31;11.90;99.90
4566;DHT22;2295;51.050;14.608;2024-02-26T12:18:05;11.80;99.90
4566;DHT22;2295;51.050;14.608;2024-02-26T12:20:35;11.90;99.90
4566;DHT22;2295;51.050;14.608;2024-02-26T12:23:04;12.10;99.90
4566;DHT22;2295;51.050;14.608;2024-02-26T12:25:33;12.10;99.90
4566;DHT22;2295;51.050;14.608;2024-02-26T12:28:03;12.40;99.90
4566;DHT22;2295;51.050;14.608;2024-02-26T12:30:31;12.20;99.90
4566;DHT22;2295;51.050;14.608;2024-02-26T12:33:00;12.10;99.90
4566;DHT22;2295;51.050;14.608;2024-02-26T12:35:30;12.30;99.90
4566;DHT22;2295;51.050;14.608;2024-02-26T12:37:59;12.50;99.90
4566;DHT22;2295;51.050;14.608;2024-02-26T12:40:27;12.40;99.90
4566;DHT22;2295;51.050;14.608;2024-02-26T12:42:56;12.40;99.90
4566;DHT22;2295;51.050;14.608;2024-02-26T12:45:26;12.40;99.90
4566;DHT22;2295;51.050;14.608;2024-02-26T12:47:55;12.40;99.90
4566;DHT22;2295;51.050;14.608;2024-02-26T12:50:24;12.20;99.90
4566;DHT22;2295;51.050;14.608;2024-02-26T12:52:53;12.20;99.90
4566;DHT22;2295;51.050;14.608;2024-02-26T12:55:22;12.20;99.90
4566;DHT22;2295;51.050;14.608;2024-02-26T12:57:50;12.20;99.90
4566;DHT22;2295;51.050;14.608;2024-02-26T13:00:21;12.10;99.90
4566;DHT22;2295;51.050;14.608;2024-02-26T13:02:51;12.00;99.90
4566;DHT22;2295;51.050;14.608;2024-02-26T13:05:23;11.80;99.90
4566;DHT22;2295;51.050;14.608;2024-02-26T13:07:51;11.70;99.90
4566;DHT22;2295;51.050;14.608;2024-02-26T13:10:20;11.80;99.90
4566;DHT22;2295;51.050;14.608;2024-02-26T13:12:49;11.50;99.90
4566;DHT22;2295;51.050;14.608;2024-02-26T13:15:19;11.20;99.90
4566;DHT22;2295;51.050;14.608;2024-02-26T13:17:48;11.30;99.90
4566;DHT22;2295;51.050;14.608;2024-02-26T13:20:27;11.50;99.90
4566;DHT22;2295;51.050;14.608;2024-02-26T13:23:03;11.50;99.90
4566;DHT22;2295;51.050;14.608;2024-02-26T13:25:32;11.50;99.90
4566;DHT22;2295;51.050;14.608;2024-02-26T13:28:08;11.70;99.90
4566;DHT22;2295;51.050;14.608;2024-02-26T13:30:37;11.50;99.90
4566;DHT22;2295;51.050;14.608;2024-02-26T13:33:09;11.60;99.90
4566;DHT22;2295;51.050;14.608;2024-02-26T13:35:39;11.70;99.90
4566;DHT22;2295;51.050;14.608;2024-02-26T13:38:08;11.50;99.90
4566;DHT22;2295;51.050;14.608;2024-02-26T13:40:37;11.50;99.90
4566;DHT22;2295;51.050;14.608;2024-02-26T13:43:06;11.60;99.90
4566;DHT22;2295;51.050;14.608;2024-02-26T13:45:35;11.70;99.90
4566;DHT22;2295;51.050;14.608;2024-02-26T13:48:05;11.70;99.90
4566;DHT22;2295;51.050;14.608;2024-02-26T13:50:34;11.80;99.90
4566;DHT22;2295;51.050;14.608;2024-02-26T13:53:04;11.80;99.90
4566;DHT22;2295;51.050;14.608;2024-02-26T13:55:32;11.70;99.90
4566;DHT22;2295;51.050;14.608;2024-02-26T13:58:01;11.20;99.90
4566;DHT22;2295;51.050;14.608;2024-02-26T14:00:30;11.20;99.90
4566;DHT22;2295;51.050;14.608;2024-02-26T14:03:01;11.20;99.90
4566;DHT22;2295;51.050;14.608;2024-02-26T14:05:30;11.10;99.90
4566;DHT22;2295;51.050;14.608;2024-02-26T14:07:59;11.10;99.90
4566;DHT22;2295;51.050;14.608;2024-02-26T14:10:29;10.80;99.90
4566;DHT22;2295;51.050;14.608;2024-02-26T14:12:59;10.60;99.90
4566;DHT22;2295;51.050;14.608;2024-02-26T14:15:28;10.50;99.90
4566;DHT22;2295;51.050;14.608;2024-02-26T14:17:56;10.60;99.90
4566;DHT22;2295;51.050;14.608;2024-02-26T14:20:25;10.60;99.90
4566;DHT22;2295;51.050;14.608;2024-02-26T14:22:54;10.50;99.90
4566;DHT22;2295;51.050;14.608;2024-02-26T14:25:22;10.50;99.90
4566;DHT22;2295;51.050;14.608;2024-02-26T14:27:57;10.50;99.90
4566;DHT22;2295;51.050;14.608;2024-02-26T14:30:26;10.30;99.90
4566;DHT22;2295;51.050;14.608;2024-02-26T14:32:57;10.20;99.90
4566;DHT22;2295;51.050;14.608;2024-02-26T14:35:25;10.10;99.90
4566;DHT22;2295;51.050;14.608;2024-02-26T14:37:54;10.10;99.90
4566;DHT22;2295;51.050;14.608;2024-02-26T14:40:27;10.10;99.90
4566;DHT22;2295;51.050;14.608;2024-02-26T14:42:58;10.00;99.90
4566;DHT22;2295;51.050;14.608;2024-02-26T14:45:27;10.00;99.90
4566;DHT22;2295;51.050;14.608;2024-02-26T14:47:55;9.90;99.90
4566;DHT22;2295;51.050;14.608;2024-02-26T14:50:24;9.90;99.90
4566;DHT22;2295;51.050;14.608;2024-02-26T14:52:52;9.90;99.90
4566;DHT22;2295;51.050;14.608;2024-02-26T14:55:21;9.90;99.90
4566;DHT22;2295;51.050;14.608;2024-02-26T14:57:49;9.80;99.90
4566;DHT22;2295;51.050;14.608;2024-02-26T15:00:20;9.60;99.90
4566;DHT22;2295;51.050;14.608;2024-02-26T15:02:48;9.40;99.90
4566;DHT22;2295;51.050;14.608;2024-02-26T15:05:16;9.30;99.90
4566;DHT22;2295;51.050;14.608;2024-02-26T15:07:46;9.20;99.90
4566;DHT22;2295;51.050;14.608;2024-02-26T15:10:18;9.10;99.90
4566;DHT22;2295;51.050;14.608;2024-02-26T15:12:46;9.10;99.90
4566;DHT22;2295;51.050;14.608;2024-02-26T15:15:15;9.10;99.90
4566;DHT22;2295;51.050;14.608;2024-02-26T15:17:45;9.10;99.90
4566;DHT22;2295;51.050;14.608;2024-02-26T15:20:13;9.00;99.90
4566;DHT22;2295;51.050;14.608;2024-02-26T15:22:42;9.00;99.90
4566;DHT22;2295;51.050;14.608;2024-02-26T15:25:10;8.90;99.90
4566;DHT22;2295;51.050;14.608;2024-02-26T15:27:41;8.90;99.90
4566;DHT22;2295;51.050;14.608;2024-02-26T15:30:11;8.80;99.90
4566;DHT22;2295;51.050;14.608;2024-02-26T15:32:39;8.80;99.90
4566;DHT22;2295;51.050;14.608;2024-02-26T15:35:11;8.70;99.90
4566;DHT22;2295;51.050;14.608;2024-02-26T15:37:40;8.70;99.90
4566;DHT22;2295;51.050;14.608;2024-02-26T15:40:09;8.60;99.90
4566;DHT22;2295;51.050;14.608;2024-02-26T15:42:38;8.50;99.90
4566;DHT22;2295;51.050;14.608;2024-02-26T15:45:06;8.50;99.90
4566;DHT22;2295;51.050;14.608;2024-02-26T15:47:35;8.40;99.90
4566;DHT22;2295;51.050;14.608;2024-02-26T15:50:04;8.30;99.90
4566;DHT22;2295;51.050;14.608;2024-02-26T15:52:34;8.30;99.90
4566;DHT22;2295;51.050;14.608;2024-02-26T15:55:02;8.20;99.90
4566;DHT22;2295;51.050;14.608;2024-02-26T15:57:31;8.20;99.90
4566;DHT22;2295;51.050;14.608;2024-02-26T16:00:00;8.10;99.90
4566;DHT22;2295;51.050;14.608;2024-02-26T16:02:32;8.00;99.90
4566;DHT22;2295;51.050;14.608;2024-02-26T16:05:00;8.00;99.90
4566;DHT22;2295;51.050;14.608;2024-02-26T16:07:32;7.90;99.90
4566;DHT22;2295;51.050;14.608;2024-02-26T16:10:02;7.80;99.90
4566;DHT22;2295;51.050;14.608;2024-02-26T16:12:36;7.70;99.90
4566;DHT22;2295;51.050;14.608;2024-02-26T16:15:06;7.60;99.90
4566;DHT22;2295;51.050;14.608;2024-02-26T16:17:38;7.50;99.90
4566;DHT22;2295;51.050;14.608;2024-02-26T16:20:14;7.40;99.90
4566;DHT22;2295;51.050;14.608;2024-02-26T16:22:45;7.30;99.90
4566;DHT22;2295;51.050;14.608;2024-02-26T16:25:15;7.30;99.90
4566;DHT22;2295;51.050;14.608;2024-02-26T16:27:44;7.20;99.90
4566;DHT22;2295;51.050;14.608;2024-02-26T16:30:13;7.20;99.90
4566;DHT22;2295;51.050;14.608;2024-02-26T16:32:43;7.10;99.90
4566;DHT22;2295;51.050;14.608;2024-02-26T16:35:11;7.00;99.90
4566;DHT22;2295;51.050;14.608;2024-02-26T16:37:41;7.00;99.90
4566;DHT22;2295;51.050;14.608;2024-02-26T16:40:14;6.90;99.90
4566;DHT22;2295;51.050;14.608;2024-02-26T16:42:43;6.80;99.90
4566;DHT22;2295;51.050;14.608;2024-02-26T16:45:11;6.70;99.90
4566;DHT22;2295;51.050;14.608;2024-02-26T16:47:40;6.70;99.90
4566;DHT22;2295;51.050;14.608;2024-02-26T16:50:10;6.60;99.90
4566;DHT22;2295;51.050;14.608;2024-02-26T16:52:40;6.50;99.90
4566;DHT22;2295;51.050;14.608;2024-02-26T16:55:08;6.50;99.90
4566;DHT22;2295;51.050;14.608;2024-02-26T16:57:38;6.50;99.90
4566;DHT22;2295;51.050;14.608;2024-02-26T17:00:08;6.40;99.90
4566;DHT22;2295;51.050;14.608;2024-02-26T17:02:40;6.30;99.90
4566;DHT22;2295;51.050;14.608;2024-02-26T17:05:08;6.30;99.90
4566;DHT22;2295;51.050;14.608;2024-02-26T17:07:37;6.30;99.90
4566;DHT22;2295;51.050;14.608;2024-02-26T17:10:08;6.30;99.90
4566;DHT22;2295;51.050;14.608;2024-02-26T17:12:37;6.30;99.90
4566;DHT22;2295;51.050;14.608;2024-02-26T17:15:06;6.30;99.90
4566;DHT22;2295;51.050;14.608;2024-02-26T17:17:36;6.20;99.90
4566;DHT22;2295;51.050;14.608;2024-02-26T17:20:05;6.20;99.90
4566;DHT22;2295;51.050;14.608;2024-02-26T17:22:35;6.10;99.90
4566;DHT22;2295;51.050;14.608;2024-02-26T17:25:04;6.10;99.90
4566;DHT22;2295;51.050;14.608;2024-02-26T17:27:32;6.10;99.90
4566;DHT22;2295;51.050;14.608;2024-02-26T17:30:02;6.10;99.90
4566;DHT22;2295;51.050;14.608;2024-02-26T17:32:31;6.00;99.90
4566;DHT22;2295;51.050;14.608;2024-02-26T17:34:59;6.00;99.90
4566;DHT22;2295;51.050;14.608;2024-02-26T17:37:28;6.00;99.90
4566;DHT22;2295;51.050;14.608;2024-02-26T17:39:56;5.90;99.90
4566;DHT22;2295;51.050;14.608;2024-02-26T17:42:25;5.90;99.90
4566;DHT22;2295;51.050;14.608;2024-02-26T17:44:54;5.80;99.90
4566;DHT22;2295;51.050;14.608;2024-02-26T17:47:23;5.70;99.90
4566;DHT22;2295;51.050;14.608;2024-02-26T17:49:52;5.70;99.90
4566;DHT22;2295;51.050;14.608;2024-02-26T17:52:20;5.70;99.90
4566;DHT22;2295;51.050;14.608;2024-02-26T17:54:49;5.60;99.90
4566;DHT22;2295;51.050;14.608;2024-02-26T17:57:17;5.50;99.90
4566;DHT22;2295;51.050;14.608;2024-02-26T17:59:47;5.50;99.90
4566;DHT22;2295;51.050;14.608;2024-02-26T18:02:16;5.40;99.90
4566;DHT22;2295;51.050;14.608;2024-02-26T18:04:46;5.40;99.90
4566;DHT22;2295;51.050;14.608;2024-02-26T18:07:18;5.50;99.90
4566;DHT22;2295;51.050;14.608;2024-02-26T18:09:46;5.50;99.90
4566;DHT22;2295;51.050;14.608;2024-02-26T18:12:14;5.50;99.90
4566;DHT22;2295;51.050;14.608;2024-02-26T18:14:43;5.50;99.90
4566;DHT22;2295;51.050;14.608;2024-02-26T18:17:11;5.40;99.90
4566;DHT22;2295;51.050;14.608;2024-02-26T18:19:42;5.40;99.90
4566;DHT22;2295;51.050;14.608;2024-02-26T18:22:12;5.20;99.90
4566;DHT22;2295;51.050;14.608;2024-02-26T18:24:41;5.10;99.90
4566;DHT22;2295;51.050;14.608;2024-02-26T18:27:09;5.00;99.90
4566;DHT22;2295;51.050;14.608;2024-02-26T18:29:37;5.00;99.90
4566;DHT22;2295;51.050;14.608;2024-02-26T18:32:07;5.00;99.90
4566;DHT22;2295;51.050;14.608;2024-02-26T18:34:35;4.90;99.90
4566;DHT22;2295;51.050;14.608;2024-02-26T18:37:06;4.90;99.90
4566;DHT22;2295;51.050;14.608;2024-02-26T18:39:39;4.80;99.90
4566;DHT22;2295;51.050;14.608;2024-02-26T18:42:08;4.70;99.90